メインページ
METAR-TAF:

METAR-TAF

空港 :

桂林, 中華人民共和国

桂林両江国際空港

緯度: 25-20N, 経度: 110-18E, 海抜: 166m

現時点の気象観測

当レポートは48分前の05:00(UTC)に作成
の風 6kt、南/南東から西/南西の間で変化する
気温 33°C
湿度 63%
気圧 1007 hPa
視程10km以上
高度3000ftの雲は散在している

METAR: ZGKL 200500Z 19003MPS 160V240 9999 SCT030 33/25 Q1007 NOSIG

時間: 13:48 (05:48 UTC)

予報

当レポートは2時間37分前の03:11(UTC)に作成
予報は20日の 06時(UTC)から 21日の 06時(UTC)まで有効
の風 6kt
視程10km以上
高度3000ftの雲は散在している
高度6000ftの雲は散在している

TAF: ZGKL 200311Z 2006/2106 18003MPS 9999 SCT030 SCT060 TX35/2008Z TN24/2022Z

4,000以上の空港の気象観測と天気予報(METAR報とTAF報)

利用可能な観測所は地図上に黄色い丸と赤い丸で示す。

丸の上にカーソルを重ねると観測所名を参照できる。

次にクリックすると気象観測と天気予報を参照できる。

マップの切り替え:黒色「×」印の緑ボタンをクリックして拡大、「-」印の緑ボタンをクリックして縮小、緑色の三角印をクリックして隣りの地図に切り替え


METAR-TAF: